Glasgow, Missouri
Current Conditions -  °F | °C
As of 6:15 AM on Friday 31 Oct 2014 (Local Time) from KVER Reporting Station
Overcast Overcast  
Wind Chill: 39°   Ceiling: 3000
Heat Index: 46°   Visibility: 10mi
Dew Point: 33°   Wind: 17mph
Humidity: 61%   Direction: 330°NNW
Pressure: 30.28"   Gusts: 29mph
Location:  39.23°N, 92.85°W
Report Text: KVER 311115Z AUTO 33015G25KT 10SM OVC030 08/00 A3028 RMK AO2 T00760004
Loading
Personal Weather Stations






























Interactive Weather Map New forecast layout! Learn more

10-Day Weather Forecast

Advertisements
Track Severe Weather on mobile